Ware, MA (01082)

6:13 PM EDT on September 02, 2015 (GMT -0400)
UMass Cold Spring Orchard | | Change Station
CLOSE
Current Station
Personal Weather Station
Location: Belchertown, MA
Elevation: 630 ft
Nearby Weather Stations

Elev 630 ft 42.25 °N, 72.36 °W | Updated 3 seconds ago

Clear
Clear
84.6 °F
Feels Like 91 °F
N
0.0
Wind Variable Wind from WSW
Gusts 6.0 mph

Today
High -- | Low -- °F
--% Chance of Precip.
Yesterday
High -- | Low -- °F
Precip. -- in
6:15 AM 7:21 PM
Waning Gibbous, 77% visible
Pressure 29.90 in
Visibility 10.0 miles
Clouds Clear
Heat Index 91 °F
Dew Point 73 °F
Humidity 68%
Rainfall 0.00 in
Snow Depth Not available.
UV 1 out of 12
Pollen 9.80 out of 12
Air Quality Not available.
Flu Activity Not available.
METAR KCEF 022158Z AUTO 28009KT 10SM CLR 30/18 A2988 RMK AO2 SLP123 T03020176
Pressure 29.90 in
Visibility 10.0 miles
Clouds Clear
Heat Index 91 °F
Dew Point 73 °F
Humidity 68%
Rainfall 0.00 in
Snow Depth Not available.
UV 1 out of 12
Pollen 9.80 out of 12
Air Quality Not available.
Flu Activity Not available.
METAR KCEF 022158Z AUTO 28009KT 10SM CLR 30/18 A2988 RMK AO2 SLP123 T03020176

10-Day Weather Forecast

×

Almanac

Astronomy

Sep. 02, 2015 Rise Set
Actual Time
Civil Twilight
Nautical Twilight
Astronomical Twilight
Moon
Length of Visible Light
Length of Day
Tomorrow will be .
, % of the Moon is Illuminated

Today's Extremes

State Highs State Lows

Community

WunderPhotos

Upload Photos

1,851,823 photos uploaded!

WunderBlogs® & News

Nearby

Air Quality

  Air Quality AQ Index Pollutant
Not available.

Snow Depth

Station Depth Elevation

Earthquake Activity

City Distance Mag. Time & Date
Minimum magnitude displayed is 2.5.

Coastal Water Temperatures

Place Temperature

Stations

Nearby Weather Stations

Station Location Temp. Windchill Dew Point Humidity Wind Precip. Elev Updated Type